SWA21A KDCA-KBOS
Flight info
| Callsign | SWA21A |
|---|---|
| Flight time | 1h 18m |
| Altitude | 35000 |
| Route | SOOKI6 SWANN BROSS Q419 JFK ROBUC3 |
| Aircraft | B738/M-SDE2E3FGHIRWXY/LB1 |
Departure
| Time | 2026-05-08 01:50 |
|---|---|
| Airport | Ronald Reagan Washington National Airport (KDCA) |
Arrival
| Time | 2026-05-08 03:09 |
|---|---|
| Airport | Boston Logan International Airport (KBOS) |
| Time | Latitude | Longitude | Altitude | Speed | Heading |
|---|---|---|---|---|---|
| 2026-05-08 01:21 | 38.85478 | -77.04140 | 24 ft | 0 kts | 177° |
| 2026-05-08 01:35 | 38.85479 | -77.04140 | 23 ft | 0 kts | 178° |
| 2026-05-08 01:36 | 38.85494 | -77.04144 | 23 ft | 2 kts | 148° |
| 2026-05-08 01:36 | 38.85506 | -77.04157 | 24 ft | 2 kts | 124° |
| 2026-05-08 01:36 | 38.85512 | -77.04174 | 24 ft | 2 kts | 99° |
| 2026-05-08 01:36 | 38.85511 | -77.04194 | 24 ft | 2 kts | 75° |
| 2026-05-08 01:37 | 38.85508 | -77.04206 | 25 ft | 0 kts | 65° |
| 2026-05-08 01:37 | 38.85507 | -77.04208 | 25 ft | 0 kts | 66° |
| 2026-05-08 01:39 | 38.85508 | -77.04205 | 25 ft | 2 kts | 66° |
| 2026-05-08 01:40 | 38.85525 | -77.04140 | 23 ft | 10 kts | 75° |
| 2026-05-08 01:40 | 38.85532 | -77.04109 | 22 ft | 5 kts | 79° |
| 2026-05-08 01:40 | 38.85549 | -77.04033 | 20 ft | 11 kts | 73° |
| 2026-05-08 01:40 | 38.85562 | -77.04005 | 19 ft | 2 kts | 14° |
| 2026-05-08 01:41 | 38.85607 | -77.04031 | 19 ft | 12 kts | 347° |
| 2026-05-08 01:41 | 38.85646 | -77.04039 | 19 ft | 0 kts | 351° |
| 2026-05-08 01:41 | 38.85670 | -77.04044 | 18 ft | 12 kts | 354° |
| 2026-05-08 01:41 | 38.85691 | -77.04045 | 18 ft | 0 kts | 355° |
| 2026-05-08 01:42 | 38.85700 | -77.04047 | 18 ft | 5 kts | 355° |
| 2026-05-08 01:42 | 38.85763 | -77.04053 | 17 ft | 8 kts | 355° |
| 2026-05-08 01:43 | 38.85802 | -77.04057 | 17 ft | 2 kts | 355° |
| 2026-05-08 01:43 | 38.85870 | -77.04063 | 17 ft | 9 kts | 356° |
| 2026-05-08 01:43 | 38.85919 | -77.04044 | 16 ft | 3 kts | 48° |
| 2026-05-08 01:43 | 38.85923 | -77.04036 | 16 ft | 0 kts | 64° |
| 2026-05-08 01:44 | 38.85932 | -77.04012 | 15 ft | 2 kts | 64° |
| 2026-05-08 01:44 | 38.85942 | -77.03993 | 15 ft | 1 kts | 48° |
| 2026-05-08 01:44 | 38.85944 | -77.03990 | 15 ft | 0 kts | 45° |
| 2026-05-08 01:45 | 38.85946 | -77.03987 | 15 ft | 0 kts | 52° |
| 2026-05-08 01:46 | 38.85951 | -77.03980 | 15 ft | 0 kts | 42° |
| 2026-05-08 01:47 | 38.85961 | -77.03972 | 14 ft | 4 kts | 29° |
| 2026-05-08 01:47 | 38.85991 | -77.03957 | 14 ft | 2 kts | 17° |
| 2026-05-08 01:47 | 38.86002 | -77.03954 | 14 ft | 0 kts | 17° |
| 2026-05-08 01:48 | 38.86002 | -77.03953 | 14 ft | 0 kts | 17° |
| 2026-05-08 01:48 | 38.86020 | -77.03946 | 14 ft | 5 kts | 17° |
| 2026-05-08 01:49 | 38.86069 | -77.03925 | 13 ft | 7 kts | 31° |
| 2026-05-08 01:49 | 38.86060 | -77.03870 | 13 ft | 9 kts | 168° |
| 2026-05-08 01:49 | 38.86053 | -77.03869 | 13 ft | 3 kts | 170° |
| 2026-05-08 01:49 | 38.85751 | -77.03838 | 16 ft | 89 kts | 176° |
| 2026-05-08 01:50 | 38.84837 | -77.03745 | 18 ft | 169 kts | 176° |
| 2026-05-08 01:50 | 38.83571 | -77.03617 | 789 ft | 187 kts | 177° |
| 2026-05-08 01:50 | 38.82221 | -77.03500 | 1427 ft | 220 kts | 178° |
| 2026-05-08 01:50 | 38.80577 | -77.03105 | 1908 ft | 259 kts | 161° |
| 2026-05-08 01:51 | 38.78947 | -77.02058 | 2834 ft | 261 kts | 151° |
| 2026-05-08 01:51 | 38.77321 | -77.00990 | 2837 ft | 261 kts | 155° |
| 2026-05-08 01:51 | 38.75826 | -76.99777 | 2829 ft | 251 kts | 134° |
| 2026-05-08 01:51 | 38.74914 | -76.97817 | 2839 ft | 266 kts | 102° |
| 2026-05-08 01:52 | 38.74849 | -76.95428 | 3500 ft | 271 kts | 82° |
| 2026-05-08 01:52 | 38.75291 | -76.93103 | 4315 ft | 270 kts | 62° |
| 2026-05-08 01:52 | 38.76337 | -76.91151 | 5160 ft | 266 kts | 42° |
| 2026-05-08 01:52 | 38.77775 | -76.89657 | 5895 ft | 268 kts | 31° |
| 2026-05-08 01:53 | 38.79353 | -76.88388 | 6669 ft | 270 kts | 27° |
| 2026-05-08 01:53 | 38.81000 | -76.87139 | 7377 ft | 276 kts | 26° |
| 2026-05-08 01:53 | 38.82675 | -76.85870 | 8082 ft | 282 kts | 26° |
| 2026-05-08 01:53 | 38.84359 | -76.84576 | 8780 ft | 288 kts | 26° |
| 2026-05-08 01:54 | 38.86077 | -76.83221 | 9480 ft | 293 kts | 28° |
| 2026-05-08 01:54 | 38.87742 | -76.81587 | 10144 ft | 303 kts | 35° |
| 2026-05-08 01:54 | 38.89362 | -76.79748 | 10544 ft | 320 kts | 37° |
| 2026-05-08 01:54 | 38.90998 | -76.77801 | 11117 ft | 329 kts | 38° |
| 2026-05-08 01:55 | 38.92699 | -76.75774 | 11733 ft | 336 kts | 38° |
| 2026-05-08 01:55 | 38.94435 | -76.73727 | 12372 ft | 343 kts | 37° |
| 2026-05-08 01:55 | 38.96224 | -76.71638 | 13052 ft | 349 kts | 37° |
| 2026-05-08 01:55 | 38.98057 | -76.69510 | 13603 ft | 359 kts | 37° |
| 2026-05-08 01:56 | 38.99932 | -76.67339 | 14234 ft | 366 kts | 37° |
| 2026-05-08 01:56 | 39.01831 | -76.65113 | 14974 ft | 370 kts | 38° |
| 2026-05-08 01:56 | 39.03695 | -76.62811 | 15651 ft | 375 kts | 39° |
| 2026-05-08 01:56 | 39.05547 | -76.60434 | 16364 ft | 379 kts | 39° |
| 2026-05-08 01:57 | 39.07430 | -76.57987 | 16996 ft | 384 kts | 39° |
| 2026-05-08 01:57 | 39.09331 | -76.55499 | 17602 ft | 391 kts | 41° |
| 2026-05-08 01:57 | 39.10999 | -76.52731 | 18215 ft | 401 kts | 54° |
| 2026-05-08 01:57 | 39.12163 | -76.49400 | 18752 ft | 412 kts | 74° |
| 2026-05-08 01:58 | 39.12748 | -76.45794 | 19370 ft | 414 kts | 81° |
| 2026-05-08 01:58 | 39.13182 | -76.42095 | 19890 ft | 421 kts | 82° |
| 2026-05-08 01:58 | 39.13578 | -76.38300 | 20468 ft | 425 kts | 82° |
| 2026-05-08 01:58 | 39.13960 | -76.34539 | 21010 ft | 430 kts | 83° |
| 2026-05-08 01:59 | 39.14354 | -76.30710 | 21558 ft | 433 kts | 83° |
| 2026-05-08 01:59 | 39.14762 | -76.26814 | 22024 ft | 439 kts | 83° |
| 2026-05-08 01:59 | 39.15178 | -76.22913 | 22524 ft | 442 kts | 82° |
| 2026-05-08 01:59 | 39.15612 | -76.18942 | 23019 ft | 446 kts | 82° |
| 2026-05-08 02:00 | 39.16054 | -76.15013 | 23449 ft | 451 kts | 82° |
| 2026-05-08 02:00 | 39.16519 | -76.10938 | 23912 ft | 455 kts | 82° |
| 2026-05-08 02:00 | 39.16983 | -76.06898 | 24370 ft | 459 kts | 82° |
| 2026-05-08 02:00 | 39.17452 | -76.02801 | 24826 ft | 462 kts | 82° |
| 2026-05-08 02:01 | 39.17915 | -75.98752 | 25263 ft | 465 kts | 81° |
| 2026-05-08 02:01 | 39.18510 | -75.94608 | 25667 ft | 470 kts | 75° |
| 2026-05-08 02:01 | 39.19482 | -75.90578 | 26031 ft | 472 kts | 65° |
| 2026-05-08 02:01 | 39.20926 | -75.86790 | 26501 ft | 468 kts | 53° |
| 2026-05-08 02:02 | 39.22775 | -75.83387 | 26869 ft | 465 kts | 43° |
| 2026-05-08 02:02 | 39.24984 | -75.80400 | 27262 ft | 460 kts | 34° |
| 2026-05-08 02:02 | 39.27408 | -75.77725 | 27645 ft | 459 kts | 29° |
| 2026-05-08 02:02 | 39.29926 | -75.75195 | 28092 ft | 458 kts | 28° |
| 2026-05-08 02:03 | 39.32473 | -75.72697 | 28487 ft | 461 kts | 27° |
| 2026-05-08 02:03 | 39.35033 | -75.70165 | 28821 ft | 466 kts | 28° |
| 2026-05-08 02:03 | 39.37601 | -75.67569 | 29223 ft | 469 kts | 28° |
| 2026-05-08 02:03 | 39.40155 | -75.64919 | 29497 ft | 475 kts | 30° |
| 2026-05-08 02:04 | 39.42719 | -75.62206 | 29872 ft | 478 kts | 30° |
| 2026-05-08 02:04 | 39.45257 | -75.59470 | 30274 ft | 479 kts | 31° |
| 2026-05-08 02:04 | 39.47818 | -75.56679 | 30569 ft | 483 kts | 31° |
| 2026-05-08 02:04 | 39.50375 | -75.53874 | 30880 ft | 486 kts | 31° |
| 2026-05-08 02:05 | 39.52957 | -75.51029 | 31226 ft | 488 kts | 31° |
| 2026-05-08 02:05 | 39.55556 | -75.48158 | 31504 ft | 491 kts | 31° |
| 2026-05-08 02:05 | 39.58157 | -75.45282 | 31787 ft | 495 kts | 31° |
| 2026-05-08 02:05 | 39.60754 | -75.42403 | 32147 ft | 495 kts | 31° |
| 2026-05-08 02:06 | 39.63229 | -75.39658 | 32423 ft | 498 kts | 31° |
| 2026-05-08 02:06 | 39.65879 | -75.36716 | 32731 ft | 500 kts | 31° |
| 2026-05-08 02:06 | 39.68528 | -75.33770 | 33000 ft | 503 kts | 31° |
| 2026-05-08 02:06 | 39.71200 | -75.30800 | 33282 ft | 505 kts | 31° |
| 2026-05-08 02:07 | 39.73864 | -75.27836 | 33502 ft | 508 kts | 32° |
| 2026-05-08 02:07 | 39.76561 | -75.24832 | 33753 ft | 510 kts | 32° |
| 2026-05-08 02:07 | 39.79209 | -75.21716 | 34051 ft | 515 kts | 36° |
| 2026-05-08 02:07 | 39.81746 | -75.18391 | 34207 ft | 522 kts | 39° |
| 2026-05-08 02:08 | 39.84191 | -75.14909 | 34620 ft | 521 kts | 41° |
| 2026-05-08 02:08 | 39.86568 | -75.11370 | 34850 ft | 522 kts | 42° |
| 2026-05-08 02:08 | 39.91314 | -75.04134 | 34873 ft | 521 kts | 43° |
| 2026-05-08 02:09 | 39.95977 | -74.96983 | 34874 ft | 523 kts | 44° |
| 2026-05-08 02:09 | 40.00368 | -74.89293 | 34870 ft | 527 kts | 50° |
| 2026-05-08 02:10 | 40.04422 | -74.81291 | 34882 ft | 528 kts | 52° |
| 2026-05-08 02:10 | 40.08417 | -74.73196 | 34872 ft | 528 kts | 52° |
| 2026-05-08 02:11 | 40.12397 | -74.65174 | 34880 ft | 528 kts | 51° |
| 2026-05-08 02:11 | 40.16428 | -74.57162 | 34874 ft | 526 kts | 50° |
| 2026-05-08 02:12 | 40.20806 | -74.49583 | 34876 ft | 518 kts | 40° |
| 2026-05-08 02:12 | 40.25949 | -74.43122 | 34885 ft | 509 kts | 32° |
| 2026-05-08 02:13 | 40.31415 | -74.37224 | 34886 ft | 508 kts | 30° |
| 2026-05-08 02:13 | 40.36962 | -74.31466 | 34887 ft | 508 kts | 31° |
| 2026-05-08 02:14 | 40.42451 | -74.25710 | 34886 ft | 509 kts | 31° |
| 2026-05-08 02:14 | 40.47950 | -74.19856 | 34882 ft | 508 kts | 31° |
| 2026-05-08 02:15 | 40.53228 | -74.13543 | 34880 ft | 519 kts | 44° |
| 2026-05-08 02:15 | 40.55322 | -74.09633 | 34888 ft | 527 kts | 58° |
| 2026-05-08 02:15 | 40.56847 | -74.05209 | 34881 ft | 533 kts | 68° |
| 2026-05-08 02:16 | 40.59224 | -73.95938 | 34877 ft | 532 kts | 72° |
| 2026-05-08 02:16 | 40.61289 | -73.86639 | 34881 ft | 533 kts | 73° |
| 2026-05-08 02:17 | 40.63792 | -73.77505 | 34878 ft | 528 kts | 58° |
| 2026-05-08 02:17 | 40.68006 | -73.69705 | 34879 ft | 520 kts | 44° |
| 2026-05-08 02:18 | 40.72789 | -73.62666 | 34880 ft | 515 kts | 40° |
| 2026-05-08 02:18 | 40.77697 | -73.55774 | 34879 ft | 516 kts | 40° |
| 2026-05-08 02:19 | 40.82580 | -73.48830 | 34862 ft | 515 kts | 41° |
| 2026-05-08 02:19 | 40.84985 | -73.45350 | 34713 ft | 509 kts | 41° |
| 2026-05-08 02:19 | 40.87357 | -73.41884 | 34304 ft | 507 kts | 41° |
| 2026-05-08 02:20 | 40.89708 | -73.38428 | 33895 ft | 504 kts | 41° |
| 2026-05-08 02:20 | 40.92017 | -73.35017 | 33515 ft | 501 kts | 41° |
| 2026-05-08 02:20 | 40.94331 | -73.31585 | 33022 ft | 499 kts | 44° |
| 2026-05-08 02:20 | 40.96345 | -73.27814 | 32537 ft | 504 kts | 60° |
| 2026-05-08 02:21 | 40.97597 | -73.23490 | 32130 ft | 503 kts | 77° |
| 2026-05-08 02:21 | 40.98034 | -73.18938 | 31652 ft | 498 kts | 90° |
| 2026-05-08 02:21 | 40.98003 | -73.14418 | 31235 ft | 492 kts | 96° |
| 2026-05-08 02:21 | 40.97816 | -73.09933 | 30810 ft | 487 kts | 97° |
| 2026-05-08 02:22 | 40.97705 | -73.05463 | 30369 ft | 486 kts | 87° |
| 2026-05-08 02:22 | 40.98415 | -73.01164 | 29854 ft | 483 kts | 64° |
| 2026-05-08 02:22 | 41.00096 | -72.97389 | 29417 ft | 469 kts | 45° |
| 2026-05-08 02:22 | 41.02415 | -72.94468 | 28868 ft | 451 kts | 26° |
| 2026-05-08 02:23 | 41.05087 | -72.92632 | 28373 ft | 429 kts | 8° |
| 2026-05-08 02:23 | 41.07917 | -72.91606 | 27875 ft | 417 kts | 2° |
| 2026-05-08 02:23 | 41.10737 | -72.90665 | 27359 ft | 419 kts | 6° |
| 2026-05-08 02:23 | 41.13508 | -72.89445 | 26892 ft | 423 kts | 12° |
| 2026-05-08 02:24 | 41.16208 | -72.87840 | 26355 ft | 429 kts | 19° |
| 2026-05-08 02:24 | 41.18810 | -72.85791 | 25899 ft | 432 kts | 27° |
| 2026-05-08 02:24 | 41.21211 | -72.83404 | 25422 ft | 435 kts | 34° |
| 2026-05-08 02:24 | 41.23451 | -72.80677 | 24939 ft | 437 kts | 41° |
| 2026-05-08 02:25 | 41.25457 | -72.77661 | 24498 ft | 437 kts | 48° |
| 2026-05-08 02:25 | 41.27231 | -72.74429 | 24046 ft | 436 kts | 54° |
| 2026-05-08 02:25 | 41.28845 | -72.71004 | 23633 ft | 433 kts | 58° |
| 2026-05-08 02:25 | 41.30298 | -72.67579 | 23223 ft | 430 kts | 60° |
| 2026-05-08 02:26 | 41.31688 | -72.64096 | 22891 ft | 425 kts | 62° |
| 2026-05-08 02:26 | 41.33040 | -72.60583 | 22875 ft | 423 kts | 63° |
| 2026-05-08 02:26 | 41.34369 | -72.57075 | 22877 ft | 430 kts | 63° |
| 2026-05-08 02:26 | 41.35714 | -72.53503 | 22868 ft | 430 kts | 63° |
| 2026-05-08 02:27 | 41.37031 | -72.50002 | 22876 ft | 427 kts | 63° |
| 2026-05-08 02:27 | 41.38378 | -72.46424 | 22871 ft | 428 kts | 63° |
| 2026-05-08 02:27 | 41.39695 | -72.42926 | 22869 ft | 428 kts | 63° |
| 2026-05-08 02:27 | 41.41024 | -72.39394 | 22817 ft | 429 kts | 63° |
| 2026-05-08 02:28 | 41.42363 | -72.35834 | 22568 ft | 429 kts | 63° |
| 2026-05-08 02:28 | 41.43691 | -72.32307 | 22320 ft | 423 kts | 64° |
| 2026-05-08 02:28 | 41.45011 | -72.28793 | 22073 ft | 421 kts | 64° |
| 2026-05-08 02:28 | 41.46308 | -72.25339 | 21825 ft | 421 kts | 64° |
| 2026-05-08 02:29 | 41.47632 | -72.21807 | 21574 ft | 420 kts | 64° |
| 2026-05-08 02:29 | 41.48923 | -72.18346 | 21348 ft | 418 kts | 64° |
| 2026-05-08 02:29 | 41.50202 | -72.14874 | 21103 ft | 416 kts | 64° |
| 2026-05-08 02:29 | 41.51466 | -72.11422 | 20849 ft | 416 kts | 65° |
| 2026-05-08 02:30 | 41.52731 | -72.07951 | 20586 ft | 413 kts | 65° |
| 2026-05-08 02:30 | 41.53973 | -72.04537 | 20351 ft | 411 kts | 65° |
| 2026-05-08 02:30 | 41.55232 | -72.01076 | 20098 ft | 410 kts | 65° |
| 2026-05-08 02:30 | 41.56439 | -71.97651 | 19872 ft | 409 kts | 68° |
| 2026-05-08 02:31 | 41.57549 | -71.94144 | 19633 ft | 407 kts | 70° |
| 2026-05-08 02:31 | 41.58579 | -71.90665 | 19399 ft | 407 kts | 71° |
| 2026-05-08 02:31 | 41.59608 | -71.87103 | 19140 ft | 405 kts | 71° |
| 2026-05-08 02:31 | 41.60608 | -71.83622 | 18879 ft | 403 kts | 71° |
| 2026-05-08 02:32 | 41.61606 | -71.80150 | 18646 ft | 402 kts | 71° |
| 2026-05-08 02:32 | 41.62603 | -71.76685 | 18389 ft | 400 kts | 71° |
| 2026-05-08 02:32 | 41.63613 | -71.73186 | 18118 ft | 399 kts | 70° |
| 2026-05-08 02:32 | 41.64611 | -71.69752 | 17857 ft | 397 kts | 70° |
| 2026-05-08 02:33 | 41.65610 | -71.66336 | 17596 ft | 393 kts | 70° |
| 2026-05-08 02:33 | 41.66608 | -71.62927 | 17335 ft | 390 kts | 69° |
| 2026-05-08 02:33 | 41.67585 | -71.59592 | 17094 ft | 388 kts | 70° |
| 2026-05-08 02:33 | 41.68573 | -71.56222 | 16840 ft | 385 kts | 69° |
| 2026-05-08 02:34 | 41.69539 | -71.52922 | 16599 ft | 383 kts | 69° |
| 2026-05-08 02:34 | 41.70518 | -71.49571 | 16345 ft | 382 kts | 69° |
| 2026-05-08 02:34 | 41.71474 | -71.46295 | 16100 ft | 379 kts | 69° |
| 2026-05-08 02:34 | 41.72476 | -71.43049 | 15849 ft | 375 kts | 65° |
| 2026-05-08 02:35 | 41.73628 | -71.39941 | 15613 ft | 372 kts | 60° |
| 2026-05-08 02:35 | 41.74891 | -71.36938 | 15369 ft | 370 kts | 58° |
| 2026-05-08 02:35 | 41.76196 | -71.33981 | 15119 ft | 367 kts | 57° |
| 2026-05-08 02:35 | 41.77485 | -71.31081 | 14852 ft | 361 kts | 57° |
| 2026-05-08 02:36 | 41.78758 | -71.28191 | 14467 ft | 358 kts | 58° |
| 2026-05-08 02:36 | 41.80010 | -71.25309 | 14020 ft | 356 kts | 58° |
| 2026-05-08 02:36 | 41.81247 | -71.22428 | 13555 ft | 355 kts | 58° |
| 2026-05-08 02:36 | 41.82455 | -71.19595 | 13101 ft | 353 kts | 58° |
| 2026-05-08 02:37 | 41.83663 | -71.16751 | 12643 ft | 352 kts | 58° |
| 2026-05-08 02:37 | 41.84876 | -71.13892 | 12181 ft | 350 kts | 58° |
| 2026-05-08 02:37 | 41.86057 | -71.11111 | 12012 ft | 338 kts | 58° |
| 2026-05-08 02:37 | 41.87210 | -71.08422 | 12009 ft | 328 kts | 57° |
| 2026-05-08 02:38 | 41.88350 | -71.05789 | 12007 ft | 329 kts | 57° |
| 2026-05-08 02:38 | 41.89511 | -71.03115 | 12014 ft | 329 kts | 57° |
| 2026-05-08 02:38 | 41.90666 | -71.00452 | 12009 ft | 328 kts | 57° |
| 2026-05-08 02:38 | 41.91794 | -70.97841 | 12007 ft | 327 kts | 57° |
| 2026-05-08 02:39 | 41.92944 | -70.95174 | 12006 ft | 329 kts | 57° |
| 2026-05-08 02:39 | 41.94080 | -70.92538 | 12005 ft | 329 kts | 57° |
| 2026-05-08 02:39 | 41.95225 | -70.89873 | 11856 ft | 326 kts | 57° |
| 2026-05-08 02:39 | 41.96359 | -70.87230 | 11484 ft | 324 kts | 57° |
| 2026-05-08 02:40 | 41.97470 | -70.84637 | 11077 ft | 323 kts | 57° |
| 2026-05-08 02:40 | 41.98588 | -70.82029 | 10662 ft | 321 kts | 57° |
| 2026-05-08 02:40 | 41.99706 | -70.79422 | 10242 ft | 320 kts | 57° |
| 2026-05-08 02:40 | 42.00826 | -70.76868 | 9996 ft | 311 kts | 53° |
| 2026-05-08 02:41 | 42.02081 | -70.74593 | 9919 ft | 296 kts | 46° |
| 2026-05-08 02:41 | 42.03405 | -70.72571 | 9851 ft | 282 kts | 43° |
| 2026-05-08 02:41 | 42.04736 | -70.70654 | 9577 ft | 279 kts | 42° |
| 2026-05-08 02:41 | 42.06060 | -70.68750 | 9228 ft | 278 kts | 43° |
| 2026-05-08 02:42 | 42.07370 | -70.66831 | 8887 ft | 277 kts | 44° |
| 2026-05-08 02:42 | 42.08653 | -70.64919 | 8544 ft | 277 kts | 45° |
| 2026-05-08 02:42 | 42.09953 | -70.63021 | 8205 ft | 274 kts | 40° |
| 2026-05-08 02:42 | 42.11461 | -70.61498 | 7993 ft | 265 kts | 20° |
| 2026-05-08 02:43 | 42.13231 | -70.60861 | 7992 ft | 264 kts | 4° |
| 2026-05-08 02:43 | 42.15033 | -70.60567 | 7787 ft | 260 kts | 2° |
| 2026-05-08 02:43 | 42.16822 | -70.60292 | 7485 ft | 258 kts | 4° |
| 2026-05-08 02:43 | 42.18601 | -70.59963 | 7183 ft | 255 kts | 5° |
| 2026-05-08 02:44 | 42.20349 | -70.59599 | 6846 ft | 252 kts | 6° |
| 2026-05-08 02:44 | 42.22112 | -70.59219 | 6518 ft | 256 kts | 6° |
| 2026-05-08 02:44 | 42.23856 | -70.58843 | 6202 ft | 256 kts | 6° |
| 2026-05-08 02:44 | 42.25602 | -70.58467 | 5885 ft | 253 kts | 6° |
| 2026-05-08 02:45 | 42.27348 | -70.58093 | 5565 ft | 251 kts | 6° |
| 2026-05-08 02:45 | 42.29047 | -70.57731 | 5293 ft | 248 kts | 6° |
| 2026-05-08 02:45 | 42.30760 | -70.57365 | 5185 ft | 247 kts | 6° |
| 2026-05-08 02:45 | 42.32475 | -70.56998 | 5113 ft | 249 kts | 6° |
| 2026-05-08 02:46 | 42.34184 | -70.56632 | 5044 ft | 249 kts | 6° |
| 2026-05-08 02:46 | 42.35869 | -70.56263 | 4985 ft | 246 kts | 6° |
| 2026-05-08 02:46 | 42.37569 | -70.55863 | 4997 ft | 248 kts | 7° |
| 2026-05-08 02:46 | 42.39287 | -70.55480 | 4943 ft | 248 kts | 2° |
| 2026-05-08 02:47 | 42.40940 | -70.55885 | 4685 ft | 240 kts | 330° |
| 2026-05-08 02:47 | 42.42105 | -70.57392 | 4431 ft | 231 kts | 302° |
| 2026-05-08 02:47 | 42.42693 | -70.59378 | 4173 ft | 226 kts | 283° |
| 2026-05-08 02:47 | 42.42758 | -70.61470 | 3908 ft | 224 kts | 263° |
| 2026-05-08 02:48 | 42.42077 | -70.63371 | 3642 ft | 227 kts | 231° |
| 2026-05-08 02:48 | 42.40963 | -70.64829 | 3389 ft | 221 kts | 234° |
| 2026-05-08 02:48 | 42.40322 | -70.66621 | 3129 ft | 207 kts | 266° |
| 2026-05-08 02:48 | 42.40493 | -70.68464 | 2978 ft | 190 kts | 291° |
| 2026-05-08 02:49 | 42.40781 | -70.70122 | 2982 ft | 174 kts | 277° |
| 2026-05-08 02:49 | 42.40698 | -70.71698 | 2991 ft | 164 kts | 265° |
| 2026-05-08 02:49 | 42.40487 | -70.73222 | 2991 ft | 165 kts | 263° |
| 2026-05-08 02:49 | 42.40245 | -70.74752 | 2993 ft | 166 kts | 263° |
| 2026-05-08 02:50 | 42.39986 | -70.76266 | 2994 ft | 167 kts | 262° |
| 2026-05-08 02:50 | 42.39719 | -70.77799 | 2994 ft | 166 kts | 262° |
| 2026-05-08 02:50 | 42.39455 | -70.79308 | 2999 ft | 165 kts | 262° |
| 2026-05-08 02:50 | 42.39189 | -70.80831 | 2761 ft | 167 kts | 262° |
| 2026-05-08 02:51 | 42.38925 | -70.82324 | 2500 ft | 161 kts | 262° |
| 2026-05-08 02:51 | 42.38668 | -70.83784 | 2341 ft | 157 kts | 262° |
| 2026-05-08 02:51 | 42.38422 | -70.85182 | 2045 ft | 148 kts | 263° |
| 2026-05-08 02:51 | 42.38193 | -70.86475 | 1891 ft | 141 kts | 264° |
| 2026-05-08 02:52 | 42.37965 | -70.87798 | 1682 ft | 142 kts | 263° |
| 2026-05-08 02:52 | 42.37735 | -70.89088 | 1493 ft | 143 kts | 262° |
| 2026-05-08 02:52 | 42.37504 | -70.90396 | 1296 ft | 143 kts | 262° |
| 2026-05-08 02:52 | 42.37278 | -70.91691 | 1103 ft | 142 kts | 262° |
| 2026-05-08 02:53 | 42.37044 | -70.92992 | 910 ft | 143 kts | 261° |
| 2026-05-08 02:53 | 42.36801 | -70.94303 | 730 ft | 143 kts | 260° |
| 2026-05-08 02:53 | 42.36574 | -70.95589 | 541 ft | 142 kts | 261° |
| 2026-05-08 02:53 | 42.36360 | -70.96899 | 346 ft | 142 kts | 259° |
| 2026-05-08 02:54 | 42.36125 | -70.98205 | 137 ft | 143 kts | 259° |
| 2026-05-08 02:54 | 42.35889 | -70.99507 | 24 ft | 141 kts | 259° |
| 2026-05-08 02:54 | 42.35651 | -71.00830 | 428 ft | 153 kts | 259° |
| 2026-05-08 02:54 | 42.35450 | -71.02355 | 973 ft | 192 kts | 270° |
| 2026-05-08 02:55 | 42.35333 | -71.04494 | 817 ft | 269 kts | 261° |
| 2026-05-08 02:55 | 42.34214 | -71.09498 | 2303 ft | 277 kts | 259° |
| 2026-05-08 02:55 | 42.33730 | -71.11958 | 1824 ft | 277 kts | 259° |
| 2026-05-08 02:56 | 42.33242 | -71.14326 | 1982 ft | 250 kts | 259° |
| 2026-05-08 02:56 | 42.32807 | -71.16559 | 1921 ft | 237 kts | 261° |
| 2026-05-08 02:56 | 42.32455 | -71.18735 | 1994 ft | 239 kts | 263° |
| 2026-05-08 02:56 | 42.32111 | -71.20897 | 2023 ft | 238 kts | 260° |
| 2026-05-08 02:57 | 42.31603 | -71.23043 | 2058 ft | 247 kts | 246° |
| 2026-05-08 02:57 | 42.30689 | -71.25042 | 2194 ft | 251 kts | 246° |
| 2026-05-08 02:57 | 42.30225 | -71.27301 | 2243 ft | 250 kts | 274° |
| 2026-05-08 02:57 | 42.30654 | -71.29575 | 2663 ft | 262 kts | 303° |
| 2026-05-08 02:58 | 42.31898 | -71.31210 | 3900 ft | 252 kts | 331° |
| 2026-05-08 02:58 | 42.33644 | -71.31856 | 4099 ft | 269 kts | 359° |
| 2026-05-08 02:58 | 42.35390 | -71.31131 | 4108 ft | 264 kts | 31° |
| 2026-05-08 02:58 | 42.36735 | -71.29456 | 4114 ft | 265 kts | 44° |
| 2026-05-08 02:59 | 42.37941 | -71.27538 | 4100 ft | 267 kts | 50° |
| 2026-05-08 02:59 | 42.38897 | -71.25369 | 4105 ft | 270 kts | 60° |
| 2026-05-08 02:59 | 42.39680 | -71.23048 | 4103 ft | 272 kts | 66° |
| 2026-05-08 02:59 | 42.40257 | -71.20614 | 4106 ft | 273 kts | 71° |
| 2026-05-08 03:00 | 42.40753 | -71.18114 | 4107 ft | 274 kts | 72° |
| 2026-05-08 03:00 | 42.41230 | -71.15619 | 4103 ft | 273 kts | 72° |
| 2026-05-08 03:00 | 42.41705 | -71.13153 | 4100 ft | 274 kts | 72° |
| 2026-05-08 03:00 | 42.42186 | -71.10664 | 4100 ft | 275 kts | 72° |
| 2026-05-08 03:01 | 42.42671 | -71.08152 | 4097 ft | 273 kts | 72° |
| 2026-05-08 03:01 | 42.43155 | -71.05661 | 4099 ft | 272 kts | 72° |
| 2026-05-08 03:01 | 42.43637 | -71.03183 | 4100 ft | 274 kts | 72° |
| 2026-05-08 03:01 | 42.44125 | -71.00673 | 4100 ft | 273 kts | 72° |
| 2026-05-08 03:02 | 42.44609 | -70.98194 | 4100 ft | 274 kts | 72° |
| 2026-05-08 03:02 | 42.45093 | -70.95731 | 4100 ft | 273 kts | 72° |
| 2026-05-08 03:02 | 42.45580 | -70.93245 | 4097 ft | 274 kts | 72° |
| 2026-05-08 03:02 | 42.46068 | -70.90748 | 4095 ft | 273 kts | 72° |
| 2026-05-08 03:03 | 42.46557 | -70.88248 | 4089 ft | 273 kts | 72° |
| 2026-05-08 03:03 | 42.47026 | -70.85843 | 4032 ft | 261 kts | 72° |
| 2026-05-08 03:03 | 42.47475 | -70.83508 | 3929 ft | 252 kts | 74° |
| 2026-05-08 03:03 | 42.47468 | -70.81158 | 3740 ft | 251 kts | 106° |
| 2026-05-08 03:04 | 42.46500 | -70.79274 | 3570 ft | 241 kts | 144° |
| 2026-05-08 03:04 | 42.44980 | -70.78610 | 3368 ft | 226 kts | 185° |
| 2026-05-08 03:04 | 42.43486 | -70.79077 | 3185 ft | 218 kts | 206° |
| 2026-05-08 03:04 | 42.42135 | -70.79947 | 3009 ft | 214 kts | 215° |
| 2026-05-08 03:05 | 42.40937 | -70.81042 | 2983 ft | 197 kts | 223° |
| 2026-05-08 03:05 | 42.39912 | -70.82201 | 2992 ft | 189 kts | 228° |
| 2026-05-08 03:05 | 42.38984 | -70.83460 | 2994 ft | 190 kts | 228° |
| 2026-05-08 03:05 | 42.37820 | -70.84328 | 2984 ft | 196 kts | 212° |
| 2026-05-08 03:06 | 42.36850 | -70.85483 | 2857 ft | 180 kts | 246° |
| 2026-05-08 03:06 | 42.36612 | -70.87090 | 2390 ft | 179 kts | 282° |
| 2026-05-08 03:06 | 42.36900 | -70.88730 | 1941 ft | 179 kts | 289° |
| 2026-05-08 03:06 | 42.37138 | -70.90378 | 1360 ft | 183 kts | 278° |
| 2026-05-08 03:07 | 42.37163 | -70.92041 | 1081 ft | 164 kts | 270° |
| 2026-05-08 03:07 | 42.36982 | -70.93480 | 815 ft | 151 kts | 259° |
| 2026-05-08 03:07 | 42.36726 | -70.94759 | 654 ft | 132 kts | 261° |
| 2026-05-08 03:07 | 42.36533 | -70.95954 | 483 ft | 129 kts | 261° |
| 2026-05-08 03:08 | 42.36318 | -70.97141 | 343 ft | 131 kts | 260° |
| 2026-05-08 03:08 | 42.36103 | -70.98323 | 150 ft | 129 kts | 258° |
| 2026-05-08 03:08 | 42.35894 | -70.99472 | 23 ft | 115 kts | 260° |
| 2026-05-08 03:08 | 42.35761 | -71.00255 | 12 ft | 51 kts | 257° |
| 2026-05-08 03:09 | 42.35779 | -71.00613 | 15 ft | 32 kts | 278° |
| 2026-05-08 03:09 | 42.35805 | -71.00873 | 18 ft | 28 kts | 280° |
| 2026-05-08 03:09 | 42.35825 | -71.01038 | 18 ft | 13 kts | 279° |
| 2026-05-08 03:09 | 42.35841 | -71.01200 | 18 ft | 20 kts | 277° |
| 2026-05-08 03:10 | 42.35861 | -71.01382 | 21 ft | 9 kts | 279° |
| 2026-05-08 03:10 | 42.35876 | -71.01500 | 20 ft | 15 kts | 280° |
| 2026-05-08 03:10 | 42.35898 | -71.01675 | 18 ft | 15 kts | 280° |
| 2026-05-08 03:10 | 42.35923 | -71.01798 | 18 ft | 7 kts | 332° |
| 2026-05-08 03:11 | 42.35970 | -71.01792 | 18 ft | 3 kts | 8° |
| 2026-05-08 03:11 | 42.35976 | -71.01791 | 18 ft | 0 kts | 8° |